ADDS METAR Data INFO
IDs: Format: Raw Decoded Include TAF

Data at: 1858 UTC 22 Sep 2017

METAR for:KDRT (Del Rio Intl, TX, US)
Text:KDRT 221853Z AUTO 14016G20KT 10SM SCT036 SCT045 BKN060 32/22 A2987 RMK AO2 SLP097 T03220217
Temperature: 32.2°C ( 90°F)
Dewpoint: 21.7°C ( 71°F) [RH = 54%]
Pressure (altimeter):29.87 inches Hg (1011.6 mb) [Sea level pressure: 1009.7 mb]
Winds:from the SE (140 degrees) at 18 MPH (16 knots; 8.2 m/s) gusting to 23 MPH (20 knots; 10.3 m/s)
Visibility:10 or more sm (16+ km)
Ceiling:6000 feet AGL
Clouds: scattered clouds at 3600 feet AGL, scattered clouds at 4500 feet AGL, broken clouds at 6000 feet AGL
QC Flag:automated observation with no human augmentation